Overview Statistics Trail Chart Weather Telemetry Raw packets
 

This is the latest recevied weather packets stored in our database for station/object YO8PIC-13. If no packets are shown the sender has not sent any weather packets the latest 10 day(s).

<< 35 36 37 38 39 40 41 >>
Time Temp. Humidity Pressure Rain* Wind** Luminosity Snow
1787929334 36.11° C 20% 1024.3 hPa - - - -
1787928736 38.33° C 17% 1024.3 hPa - - - -
1787928134 35.56° C 20% 1024.3 hPa - - - -
1787927534 28.89° C 31% 1024.5 hPa - - - -
1787926934 30° C 28% 1024.6 hPa - - - -
1787926334 38.33° C 18% 1024.6 hPa - - - -
1787925734 34.44° C 23% 1024.7 hPa - - - -
1787925134 28.33° C 31% 1024.7 hPa - - - -
1787924533 29.44° C 28% 1024.7 hPa - - - -
1787923934 30.56° C 27% 1024.8 hPa - - - -
1787923334 28.89° C 30% 1024.9 hPa - - - -
1787922733 28.89° C 29% 1024.8 hPa - - - -
1787922133 28.89° C 30% 1024.8 hPa - - - -
1787921534 26.11° C 33% 1025 hPa - - - -
1787920934 29.44° C 26% 1025 hPa - - - -
1787920334 35° C 19% 1024.9 hPa - - - -
1787919734 33.33° C 21% 1025 hPa - - - -
1787919134 43.89° C 12% 1024.8 hPa - - - -
1787918533 31.67° C 23% 1024.9 hPa - - - -
1787917934 32.22° C 22% 1024.9 hPa - - - -
1787917335 30° C 25% 1025 hPa - - - -
1787916733 34.44° C 17% 1024.9 hPa - - - -
1787916134 34.44° C 17% 1025 hPa - - - -
1787915533 35° C 17% 1025 hPa - - - -
1787914934 40° C 13% 1024.9 hPa - - - -

* Rain since midnight (hover to see other rain measurements)
** Current wind speed in m/s (hover to see current wind gust speed)